createdAt,value
2022-12-04T00:01:48.168Z,42.20
2022-12-04T00:04:35.802Z,42.60
2022-12-04T00:07:22.388Z,45.17
2022-12-04T00:10:10.111Z,40.40
2022-12-04T00:13:02.150Z,44.20
2022-12-04T00:15:49.809Z,41.73
2022-12-04T00:18:37.275Z,42.30
2022-12-04T00:21:49.988Z,39.13
2022-12-04T00:24:38.185Z,38.63
2022-12-04T00:27:37.597Z,44.10
2022-12-04T00:30:28.980Z,46.10
2022-12-04T00:33:19.621Z,41.13
2022-12-04T00:36:10.197Z,39.90
2022-12-04T00:38:59.473Z,40.90
2022-12-04T00:41:51.500Z,41.13
2022-12-04T00:44:37.613Z,41.00
2022-12-04T00:47:27.219Z,39.00
2022-12-04T00:50:19.836Z,42.27
2022-12-04T00:53:06.299Z,38.10
2022-12-04T00:55:52.428Z,38.97
2022-12-04T00:58:38.785Z,41.67
2022-12-04T01:01:48.836Z,39.37
2022-12-04T01:04:38.711Z,43.17
2022-12-04T01:07:31.078Z,43.83
2022-12-04T01:10:45.508Z,43.13
2022-12-04T01:13:34.095Z,41.80
2022-12-04T01:16:27.807Z,45.93
2022-12-04T01:19:19.385Z,42.33
2022-12-04T01:22:12.128Z,43.27
2022-12-04T01:25:14.664Z,40.73
2022-12-04T01:28:04.755Z,41.63
2022-12-04T01:31:19.671Z,43.40
2022-12-04T01:35:01.248Z,41.23
2022-12-04T01:37:50.941Z,37.90
2022-12-04T01:40:44.645Z,43.27
2022-12-04T01:43:32.801Z,42.73
2022-12-04T01:46:28.488Z,43.53
2022-12-04T01:49:18.960Z,40.00
2022-12-04T01:52:13.967Z,38.40
2022-12-04T01:55:02.693Z,42.47
2022-12-04T01:57:49.311Z,37.73
2022-12-04T02:01:07.955Z,41.87
2022-12-04T02:04:01.664Z,41.27
2022-12-04T02:07:15.596Z,40.93
2022-12-04T02:10:27.201Z,39.47
2022-12-04T02:13:21.774Z,41.67
2022-12-04T02:16:14.438Z,38.30
2022-12-04T02:19:12.859Z,38.80
2022-12-04T02:22:15.685Z,37.93
2022-12-04T02:25:13.953Z,36.60
2022-12-04T02:28:10.593Z,39.77
2022-12-04T02:31:00.273Z,39.47
2022-12-04T02:33:56.734Z,37.20
2022-12-04T02:37:11.228Z,40.17
2022-12-04T02:40:04.044Z,38.70
2022-12-04T02:42:56.220Z,42.97
2022-12-04T02:45:47.749Z,35.77
2022-12-04T02:49:04.319Z,39.63
2022-12-04T02:52:00.145Z,37.57
2022-12-04T02:54:55.517Z,37.97
2022-12-04T02:58:03.377Z,36.27
2022-12-04T03:00:55.567Z,38.23
2022-12-04T03:03:42.510Z,37.53
2022-12-04T03:07:27.946Z,37.63
2022-12-04T03:10:20.306Z,37.50
2022-12-04T03:13:14.990Z,38.87
2022-12-04T03:16:13.150Z,37.50
2022-12-04T03:20:10.516Z,36.13
2022-12-04T03:23:04.625Z,42.53
2022-12-04T03:25:58.575Z,36.90
2022-12-04T03:28:53.734Z,39.13
2022-12-04T03:32:13.048Z,38.60
2022-12-04T03:35:06.227Z,36.60
2022-12-04T03:38:01.388Z,37.80
2022-12-04T03:40:57.913Z,36.30
2022-12-04T03:43:52.102Z,41.07
2022-12-04T03:46:46.310Z,38.90
2022-12-04T03:49:45.773Z,35.20
2022-12-04T03:52:42.528Z,35.40
2022-12-04T03:55:42.756Z,36.90
2022-12-04T03:58:34.249Z,35.47
2022-12-04T04:01:37.875Z,33.07
2022-12-04T04:04:29.185Z,34.90
2022-12-04T04:07:22.556Z,35.53
2022-12-04T04:10:58.904Z,37.17
2022-12-04T04:14:09.101Z,36.33
2022-12-04T04:17:17.881Z,35.10
2022-12-04T04:20:27.205Z,35.33
2022-12-04T04:23:37.613Z,33.63
2022-12-04T04:26:50.454Z,31.40
2022-12-04T04:29:38.634Z,31.17
2022-12-04T04:32:56.447Z,29.57
2022-12-04T04:35:54.257Z,35.13
2022-12-04T04:38:47.305Z,34.07
2022-12-04T04:41:41.708Z,31.73
2022-12-04T04:44:35.444Z,29.03
2022-12-04T04:47:46.464Z,31.20
2022-12-04T04:50:39.894Z,29.43
2022-12-04T04:53:48.823Z,29.33
2022-12-04T04:56:42.394Z,30.47
2022-12-04T04:59:35.513Z,30.03
2022-12-04T05:02:27.980Z,28.13
2022-12-04T05:10:18.165Z,29.03
2022-12-04T05:13:05.514Z,29.33
2022-12-04T05:15:58.130Z,30.73
2022-12-04T05:19:06.648Z,27.60
2022-12-04T05:21:34.548Z,25.33
2022-12-04T05:24:03.015Z,27.00
2022-12-04T05:26:32.384Z,27.70
2022-12-04T05:29:00.410Z,27.20
2022-12-04T05:31:28.814Z,26.77
2022-12-04T05:33:57.852Z,26.80
2022-12-04T05:36:25.813Z,25.43
2022-12-04T05:38:54.004Z,25.10
2022-12-04T05:41:21.936Z,26.07
2022-12-04T05:43:51.317Z,28.10
2022-12-04T05:46:19.203Z,27.00
2022-12-04T05:48:47.071Z,24.33
2022-12-04T05:51:15.068Z,27.93
2022-12-04T05:53:42.865Z,25.67
2022-12-04T05:56:11.819Z,26.47
2022-12-04T05:58:40.141Z,21.77
2022-12-04T06:01:14.343Z,25.80
2022-12-04T06:03:42.382Z,27.80
2022-12-04T06:06:20.741Z,25.47
2022-12-04T06:08:49.788Z,26.30
2022-12-04T06:11:20.274Z,25.47
2022-12-04T06:13:48.589Z,25.73
2022-12-04T06:16:19.894Z,26.20
2022-12-04T06:18:50.661Z,28.90
2022-12-04T06:21:19.097Z,27.37
2022-12-04T06:23:47.303Z,25.13
2022-12-04T06:26:15.584Z,25.80
2022-12-04T06:28:49.178Z,27.93
2022-12-04T06:31:19.648Z,25.43
2022-12-04T06:33:48.013Z,24.90
2022-12-04T06:36:18.537Z,25.17
2022-12-04T06:38:46.893Z,24.03
2022-12-04T06:45:40.078Z,23.60
2022-12-04T06:48:09.828Z,25.23
2022-12-04T06:50:38.179Z,21.27
2022-12-04T06:53:08.541Z,24.10
2022-12-04T06:55:36.977Z,23.37
2022-12-04T06:58:04.968Z,24.80
2022-12-04T07:00:33.012Z,24.30
2022-12-04T07:03:01.094Z,24.37
2022-12-04T07:05:30.887Z,25.37
2022-12-04T07:07:59.017Z,24.07
2022-12-04T07:10:27.246Z,23.93
2022-12-04T07:12:55.204Z,22.13
2022-12-04T07:15:23.301Z,25.40
2022-12-04T07:17:51.246Z,25.37
2022-12-04T07:20:19.281Z,25.23
2022-12-04T07:22:48.691Z,22.37
2022-12-04T07:25:16.881Z,23.97
2022-12-04T07:27:44.989Z,23.47
2022-12-04T07:30:15.883Z,23.87
2022-12-04T07:32:44.321Z,23.77
2022-12-04T07:35:12.399Z,23.20
2022-12-04T07:37:40.419Z,24.53
2022-12-04T07:40:10.767Z,21.23
2022-12-04T07:42:38.779Z,22.37
2022-12-04T07:45:08.041Z,23.73
2022-12-04T07:47:36.515Z,23.20
2022-12-04T07:50:04.739Z,22.27
2022-12-04T07:52:33.092Z,22.30
2022-12-04T07:55:01.419Z,20.47
2022-12-04T07:57:30.982Z,21.43
2022-12-04T07:59:59.116Z,19.50
2022-12-04T08:02:27.404Z,21.07
2022-12-04T08:04:55.666Z,20.83
2022-12-04T08:07:23.970Z,18.87
2022-12-04T08:09:51.972Z,20.37
2022-12-04T08:12:19.914Z,20.93
2022-12-04T08:14:50.482Z,19.70
2022-12-04T08:17:18.599Z,19.80
2022-12-04T08:19:46.803Z,21.93
2022-12-04T08:22:14.769Z,20.60
2022-12-04T08:24:43.605Z,19.93
2022-12-04T08:27:11.714Z,16.80
2022-12-04T08:29:39.641Z,18.80
2022-12-04T08:32:09.280Z,16.50
2022-12-04T08:34:37.297Z,17.33
2022-12-04T08:37:05.368Z,17.97
2022-12-04T08:39:33.273Z,19.53
2022-12-04T08:42:01.355Z,17.57
2022-12-04T08:44:29.363Z,18.33
2022-12-04T08:46:59.153Z,17.70
2022-12-04T08:49:28.619Z,19.30
2022-12-04T08:51:56.515Z,16.10
2022-12-04T08:54:24.408Z,33.87
2022-12-04T08:56:52.418Z,17.53
2022-12-04T08:59:20.376Z,17.97
2022-12-04T09:01:51.307Z,18.17
2022-12-04T09:04:19.927Z,18.47
2022-12-04T09:06:49.370Z,17.47
2022-12-04T09:09:17.334Z,18.67
2022-12-04T09:11:46.766Z,18.33
2022-12-04T09:14:14.855Z,19.50
2022-12-04T09:16:42.913Z,19.57
2022-12-04T09:19:10.861Z,19.67
2022-12-04T09:21:38.938Z,21.67
2022-12-04T09:24:08.580Z,21.57
2022-12-04T09:26:36.793Z,19.87
2022-12-04T09:29:06.071Z,19.07
2022-12-04T09:31:35.121Z,22.10
2022-12-04T09:34:03.931Z,19.03
2022-12-04T09:36:32.158Z,20.50
2022-12-04T09:39:00.281Z,20.80
2022-12-04T09:42:03.100Z,18.97
2022-12-04T09:44:35.095Z,19.13
2022-12-04T09:47:06.078Z,19.97
2022-12-04T09:49:39.865Z,20.97
2022-12-04T09:52:23.782Z,20.10
2022-12-04T09:54:53.986Z,21.70
2022-12-04T09:57:29.345Z,20.30
2022-12-04T09:59:57.940Z,19.80
2022-12-04T10:02:36.450Z,19.30
2022-12-04T10:05:05.506Z,21.53
2022-12-04T10:07:39.068Z,22.77
2022-12-04T10:10:14.452Z,23.13
2022-12-04T10:12:55.111Z,21.13
2022-12-04T10:15:31.375Z,22.57
2022-12-04T10:18:14.971Z,23.53
2022-12-04T10:20:58.449Z,22.07
2022-12-04T10:23:38.869Z,23.47
2022-12-04T10:26:14.769Z,23.03
2022-12-04T10:28:54.836Z,21.13
2022-12-04T10:31:24.491Z,23.27
2022-12-04T10:33:55.935Z,21.27
2022-12-04T10:36:30.975Z,21.60
2022-12-04T10:39:01.435Z,21.40
2022-12-04T10:41:36.210Z,22.97
2022-12-04T10:44:06.249Z,23.27
2022-12-04T10:46:35.895Z,22.47
2022-12-04T10:49:09.555Z,23.17
2022-12-04T10:51:41.785Z,24.47
2022-12-04T10:54:19.856Z,22.20
2022-12-04T10:56:56.120Z,24.17
2022-12-04T10:59:26.434Z,23.90
2022-12-04T11:02:06.931Z,24.77
2022-12-04T11:04:36.507Z,22.77
2022-12-04T11:07:06.866Z,24.40
2022-12-04T11:09:35.678Z,22.77
2022-12-04T11:12:09.061Z,23.03
2022-12-04T11:14:42.716Z,22.70
2022-12-04T11:17:18.010Z,24.47
2022-12-04T11:19:46.103Z,24.07
2022-12-04T11:22:16.254Z,23.53
2022-12-04T11:24:50.680Z,25.00
2022-12-04T11:27:25.098Z,23.50
2022-12-04T11:29:55.590Z,24.47
2022-12-04T11:32:27.215Z,26.07
2022-12-04T11:35:00.902Z,24.33
2022-12-04T11:37:34.600Z,24.60
2022-12-04T11:40:06.753Z,22.70
2022-12-04T11:42:34.894Z,26.47
2022-12-04T11:45:20.949Z,24.97
2022-12-04T11:47:55.858Z,26.10
2022-12-04T11:50:32.446Z,27.33
2022-12-04T11:53:11.742Z,28.40
2022-12-04T11:55:54.147Z,23.67
2022-12-04T11:58:39.526Z,29.30
2022-12-04T12:01:22.267Z,26.67
2022-12-04T12:04:07.221Z,27.87
2022-12-04T12:06:38.018Z,28.60
2022-12-04T12:09:23.575Z,26.43
2022-12-04T12:11:57.422Z,26.87
2022-12-04T12:14:33.934Z,27.77
2022-12-04T12:17:16.515Z,25.80
2022-12-04T12:20:06.580Z,22.77
2022-12-04T12:22:50.853Z,25.27
2022-12-04T12:25:22.538Z,25.63
2022-12-04T12:28:21.195Z,28.00
2022-12-04T12:31:06.760Z,26.80
2022-12-04T12:33:40.784Z,27.13
2022-12-04T12:36:12.713Z,24.73
2022-12-04T12:38:45.198Z,27.43
2022-12-04T12:41:16.584Z,27.70
2022-12-04T12:43:48.632Z,26.80
2022-12-04T12:46:22.911Z,23.20
2022-12-04T12:49:00.081Z,26.30
2022-12-04T12:51:35.095Z,27.60
2022-12-04T12:54:13.408Z,28.03
2022-12-04T12:56:49.796Z,24.73
2022-12-04T12:59:21.967Z,25.40
2022-12-04T13:02:00.684Z,25.27
2022-12-04T13:04:38.916Z,27.13
2022-12-04T13:07:29.027Z,25.80
2022-12-04T13:10:06.699Z,23.27
2022-12-04T13:12:39.731Z,25.10
2022-12-04T13:15:14.112Z,23.87
2022-12-04T13:17:43.690Z,25.57
2022-12-04T13:20:21.459Z,25.60
2022-12-04T13:23:04.893Z,25.53
2022-12-04T13:25:46.679Z,23.60
2022-12-04T13:28:26.301Z,24.43
2022-12-04T13:31:02.228Z,27.23
2022-12-04T13:33:52.716Z,26.30
2022-12-04T13:36:47.204Z,24.90
2022-12-04T13:39:34.847Z,27.33
2022-12-04T13:42:05.623Z,24.43
2022-12-04T13:44:36.534Z,27.97
2022-12-04T13:47:06.992Z,26.50
2022-12-04T13:49:48.620Z,25.43
2022-12-04T13:52:25.650Z,25.67
2022-12-04T13:54:59.091Z,25.57
2022-12-04T13:57:28.289Z,23.43
2022-12-04T14:00:08.413Z,21.40
2022-12-04T14:02:59.076Z,23.63
2022-12-04T14:05:30.731Z,22.03
2022-12-04T14:08:07.599Z,23.83
2022-12-04T14:10:39.612Z,20.87
2022-12-04T14:13:19.109Z,22.40
2022-12-04T14:15:47.361Z,22.07
2022-12-04T14:18:29.811Z,22.53
2022-12-04T14:21:04.601Z,22.40
2022-12-04T14:23:39.571Z,20.17
2022-12-04T14:26:21.125Z,20.73
2022-12-04T14:28:53.510Z,18.77
2022-12-04T14:31:27.598Z,18.80
2022-12-04T14:33:59.401Z,19.83
2022-12-04T14:36:31.600Z,19.73
2022-12-04T14:39:06.469Z,20.43
2022-12-04T14:41:34.557Z,20.07
2022-12-04T14:44:03.059Z,22.00
2022-12-04T14:46:42.794Z,21.03
2022-12-04T14:49:31.908Z,20.47
2022-12-04T14:52:07.031Z,20.80
2022-12-04T14:54:43.864Z,16.93
2022-12-04T14:57:33.896Z,18.77
2022-12-04T15:00:02.567Z,17.73
2022-12-04T15:02:35.869Z,18.90
2022-12-04T15:05:04.542Z,22.50
2022-12-04T15:07:34.077Z,19.77
2022-12-04T15:10:37.161Z,19.50
2022-12-04T15:13:05.223Z,19.10
2022-12-04T15:15:33.280Z,18.57
2022-12-04T15:18:04.249Z,17.70
2022-12-04T15:20:39.285Z,18.57
2022-12-04T15:23:07.669Z,18.27
2022-12-04T15:25:46.077Z,19.23
2022-12-04T15:28:19.478Z,19.87
2022-12-04T15:30:49.987Z,18.57
2022-12-04T15:33:21.858Z,19.87
2022-12-04T15:35:55.196Z,18.23
2022-12-04T15:38:23.557Z,18.83
2022-12-04T15:40:55.194Z,18.97
2022-12-04T15:43:31.647Z,18.93
2022-12-04T15:46:00.168Z,19.83
2022-12-04T15:48:32.103Z,20.23
2022-12-04T15:51:03.450Z,18.93
2022-12-04T15:53:33.855Z,19.33
2022-12-04T15:56:06.869Z,18.13
2022-12-04T15:58:37.522Z,21.73
2022-12-04T16:01:07.587Z,21.13
2022-12-04T16:03:45.304Z,24.83
2022-12-04T16:06:19.615Z,21.73
2022-12-04T16:08:53.164Z,21.40
2022-12-04T16:11:31.513Z,20.83
2022-12-04T16:14:20.483Z,22.33
2022-12-04T16:16:51.348Z,24.03
2022-12-04T16:19:28.967Z,22.40
2022-12-04T16:21:57.137Z,23.20
2022-12-04T16:24:25.381Z,23.10
2022-12-04T16:26:56.301Z,25.03
2022-12-04T16:29:24.616Z,24.77
2022-12-04T16:31:54.299Z,24.47
2022-12-04T16:34:24.183Z,25.07
2022-12-04T16:36:51.985Z,26.27
2022-12-04T16:39:19.955Z,23.27
2022-12-04T16:41:47.911Z,25.10
2022-12-04T16:44:18.115Z,24.30
2022-12-04T16:46:46.242Z,24.53
2022-12-04T16:49:14.487Z,24.37
2022-12-04T16:51:46.943Z,30.33
2022-12-04T16:54:15.004Z,31.43
2022-12-04T16:56:43.402Z,34.33
2022-12-04T16:59:12.453Z,35.60
2022-12-04T17:01:46.070Z,37.07
2022-12-04T17:04:14.137Z,40.07
2022-12-04T17:06:42.431Z,41.80
2022-12-04T17:09:10.787Z,37.20
2022-12-04T17:11:39.293Z,36.53
2022-12-04T17:14:08.105Z,35.63
2022-12-04T17:16:36.734Z,34.23
2022-12-04T17:19:06.480Z,35.07
2022-12-04T17:21:34.439Z,33.57
2022-12-04T17:24:03.080Z,34.50
2022-12-04T17:26:31.032Z,37.03
2022-12-04T17:28:59.026Z,29.23
2022-12-04T17:31:36.561Z,34.40
2022-12-04T17:34:06.553Z,30.17
2022-12-04T17:36:34.484Z,31.97
2022-12-04T17:39:02.925Z,29.63
2022-12-04T17:41:30.874Z,29.07
2022-12-04T17:44:00.828Z,29.70
2022-12-04T17:46:29.093Z,30.20
2022-12-04T17:49:01.466Z,31.40
2022-12-04T17:51:36.937Z,27.00
2022-12-04T17:54:08.574Z,31.30
2022-12-04T17:56:36.528Z,33.03
2022-12-04T17:59:04.719Z,32.30
2022-12-04T18:01:32.836Z,33.70
2022-12-04T18:04:03.243Z,34.50
2022-12-04T18:06:34.397Z,33.27
2022-12-04T18:09:02.839Z,35.80
2022-12-04T18:11:32.887Z,36.87
2022-12-04T18:14:08.589Z,39.40
2022-12-04T18:16:41.949Z,36.33
2022-12-04T18:19:10.071Z,37.43
2022-12-04T18:21:40.047Z,35.07
2022-12-04T18:24:08.669Z,38.27
2022-12-04T18:26:38.988Z,41.63
2022-12-04T18:29:07.346Z,39.20
2022-12-04T18:31:35.763Z,37.20
2022-12-04T18:34:06.628Z,38.93
2022-12-04T18:36:36.427Z,39.33
2022-12-04T18:39:08.836Z,36.17
2022-12-04T18:41:36.904Z,39.43
2022-12-04T18:44:05.258Z,40.77
2022-12-04T18:46:33.501Z,43.73
2022-12-04T18:49:01.884Z,39.17
2022-12-04T18:51:32.104Z,45.63
2022-12-04T18:54:02.915Z,44.30
2022-12-04T18:56:35.000Z,45.70
2022-12-04T18:59:05.137Z,47.97
2022-12-04T19:01:33.279Z,47.53
2022-12-04T19:04:03.649Z,43.63
2022-12-04T19:06:32.939Z,48.47
2022-12-04T19:09:02.268Z,48.93
2022-12-04T19:11:30.203Z,48.70
2022-12-04T19:14:01.040Z,49.63
2022-12-04T19:16:29.918Z,47.23
2022-12-04T19:18:58.414Z,48.03
2022-12-04T19:21:27.333Z,51.40
2022-12-04T19:23:59.089Z,47.20
2022-12-04T19:26:27.418Z,48.03
2022-12-04T19:28:56.270Z,48.87
2022-12-04T19:31:27.622Z,48.03
2022-12-04T19:33:57.806Z,47.27
2022-12-04T19:36:27.129Z,48.43
2022-12-04T19:38:55.339Z,48.63
2022-12-04T19:41:25.680Z,46.37
2022-12-04T19:43:58.605Z,47.57
2022-12-04T19:46:30.603Z,46.90
2022-12-04T19:49:02.219Z,47.13
2022-12-04T19:51:33.217Z,48.33
2022-12-04T19:54:02.510Z,47.60
2022-12-04T19:56:32.328Z,48.97
2022-12-04T19:59:02.403Z,46.90
2022-12-04T20:01:32.384Z,45.77
2022-12-04T20:04:02.542Z,45.27
2022-12-04T20:06:31.908Z,46.97
2022-12-04T20:09:02.524Z,46.80
2022-12-04T20:11:31.465Z,44.73
2022-12-04T20:14:02.101Z,44.80
2022-12-04T20:16:34.319Z,49.67
2022-12-04T20:19:03.693Z,47.60
2022-12-04T20:21:32.524Z,48.23
2022-12-04T20:24:03.965Z,52.60
2022-12-04T20:26:34.959Z,48.83
2022-12-04T20:29:03.221Z,51.00
2022-12-04T20:31:35.615Z,49.70
2022-12-04T20:34:05.692Z,49.07
2022-12-04T20:36:37.771Z,45.97
2022-12-04T20:39:07.153Z,46.30
2022-12-04T20:41:35.279Z,44.87
2022-12-04T20:44:05.486Z,49.53
2022-12-04T20:46:36.186Z,41.57
2022-12-04T20:49:06.890Z,47.03
2022-12-04T20:51:37.357Z,48.17
2022-12-04T20:54:06.128Z,45.60
2022-12-04T20:56:36.131Z,44.63
2022-12-04T20:59:06.177Z,50.90
2022-12-04T21:01:36.585Z,44.90
2022-12-04T21:04:05.554Z,43.60
2022-12-04T21:06:35.913Z,42.10
2022-12-04T21:09:06.025Z,46.87
2022-12-04T21:11:38.116Z,47.70
2022-12-04T21:14:25.288Z,44.53
2022-12-04T21:16:54.588Z,44.07
2022-12-04T21:19:23.797Z,45.03
2022-12-04T21:21:52.312Z,45.83
2022-12-04T21:24:21.823Z,47.30
2022-12-04T21:26:49.752Z,45.60
2022-12-04T21:29:17.657Z,41.90
2022-12-04T21:31:45.691Z,45.53
2022-12-04T21:34:17.536Z,40.10
2022-12-04T21:36:46.252Z,44.90
2022-12-04T21:39:14.343Z,38.27
2022-12-04T21:42:00.140Z,41.83
2022-12-04T21:44:28.313Z,39.13
2022-12-04T21:46:56.338Z,37.97
2022-12-04T21:49:25.706Z,40.97
2022-12-04T21:51:58.383Z,43.30
2022-12-04T21:54:27.042Z,37.87
2022-12-04T21:56:55.259Z,39.20
2022-12-04T21:59:23.381Z,38.87
2022-12-04T22:01:51.373Z,42.97
2022-12-04T22:04:19.404Z,38.90
2022-12-04T22:06:48.764Z,40.53
2022-12-04T22:09:17.196Z,41.07
2022-12-04T22:11:45.557Z,38.17
2022-12-04T22:14:13.907Z,41.77
2022-12-04T22:16:43.290Z,38.90
2022-12-04T22:19:12.742Z,40.63
2022-12-04T22:21:41.172Z,46.20
2022-12-04T22:24:11.478Z,42.77
2022-12-04T22:26:39.914Z,42.47
2022-12-04T22:29:41.531Z,47.73
2022-12-04T22:31:56.311Z,43.33
2022-12-04T22:34:24.180Z,42.53
2022-12-04T22:36:52.052Z,41.27
2022-12-04T22:39:21.236Z,41.80
2022-12-04T22:41:49.283Z,42.07
2022-12-04T22:44:17.296Z,48.80
2022-12-04T22:46:45.306Z,40.50
2022-12-04T22:49:13.333Z,41.10
2022-12-04T22:51:41.178Z,42.70
2022-12-04T22:54:14.055Z,42.30
2022-12-04T22:56:44.224Z,42.73
2022-12-04T22:59:12.193Z,41.87
2022-12-04T23:01:39.980Z,37.33
2022-12-04T23:04:08.420Z,40.57
2022-12-04T23:06:36.458Z,40.77
2022-12-04T23:09:07.822Z,41.93
2022-12-04T23:11:36.777Z,39.70
2022-12-04T23:14:08.931Z,39.70
2022-12-04T23:16:38.982Z,38.63
2022-12-04T23:19:08.470Z,44.23
2022-12-04T23:21:36.696Z,41.40
2022-12-04T23:24:05.070Z,38.40
2022-12-04T23:26:34.588Z,43.80
2022-12-04T23:29:03.207Z,41.07
2022-12-04T23:31:33.862Z,39.83
2022-12-04T23:34:02.651Z,44.83
2022-12-04T23:36:30.742Z,39.53
2022-12-04T23:38:58.660Z,43.73
2022-12-04T23:41:28.716Z,43.63
2022-12-04T23:43:57.228Z,41.93
2022-12-04T23:46:29.119Z,44.17
2022-12-04T23:48:59.420Z,42.50
2022-12-04T23:51:28.235Z,41.77
2022-12-04T23:53:56.398Z,38.87
2022-12-04T23:56:25.946Z,41.53
2022-12-04T23:58:55.534Z,41.27
